Time;durP1;ratioP1;P1;durP2;ratioP2;P2;SDS_P1;SDS_P2;PMS_P1;PMS_P2;Temp;Humidity;BMP_temperature;BMP_pressure;BME280_temperature;BME280_humidity;BME280_pressure;Samples;Min_cycle;Max_cycle;Signal;HPM_P1;HPM_P2
2022/06/26 00:02:01;;;;;;;3.30;2.70;;;;;;;24.12;50.98;99563.38;4983231;28;20038;-80
2022/06/26 00:04:27;;;;;;;3.33;2.63;;;;;;;24.11;50.82;99561.69;4951376;28;20062;-79
2022/06/26 00:06:55;;;;;;;2.97;2.35;;;;;;;24.06;50.83;99558.84;4959670;28;20041;-82
2022/06/26 00:09:22;;;;;;;6.80;3.47;;;;;;;24.06;51.04;99564.28;4962568;28;20099;-81
2022/06/26 00:11:49;;;;;;;3.60;2.97;;;;;;;24.04;50.92;99558.25;4992318;28;20524;-81
2022/06/26 00:14:15;;;;;;;3.40;2.80;;;;;;;24.01;51.14;99556.00;4979865;28;20049;-81
2022/06/26 00:16:42;;;;;;;3.83;2.95;;;;;;;23.99;51.14;99553.53;4965199;28;20056;-91
2022/06/26 00:19:09;;;;;;;3.80;3.08;;;;;;;23.97;51.05;99558.38;4984732;28;20129;-89
2022/06/26 00:21:36;;;;;;;3.00;2.70;;;;;;;23.96;51.00;99561.28;4999466;28;20053;-89
2022/06/26 00:24:03;;;;;;;3.63;2.67;;;;;;;23.94;51.39;99566.97;4980918;28;20065;-89
2022/06/26 00:26:30;;;;;;;3.10;2.67;;;;;;;23.93;51.26;99570.72;4994439;28;20489;-89
2022/06/26 00:28:56;;;;;;;9.35;3.55;;;;;;;23.90;51.33;99576.59;4981836;28;20069;-87
2022/06/26 00:31:23;;;;;;;4.07;2.75;;;;;;;23.89;51.26;99580.38;4982481;28;20046;-76
2022/06/26 00:33:50;;;;;;;4.78;3.10;;;;;;;23.86;51.19;99582.72;4982063;28;20402;-76
2022/06/26 00:36:17;;;;;;;2.85;2.45;;;;;;;23.85;51.28;99590.03;4975755;28;20133;-76
2022/06/26 00:38:44;;;;;;;3.33;2.80;;;;;;;23.82;51.49;99594.03;4976738;28;20485;-76
2022/06/26 00:41:11;;;;;;;5.07;2.63;;;;;;;23.83;51.53;99627.38;4981933;28;20049;-79
2022/06/26 00:43:38;;;;;;;3.53;2.80;;;;;;;23.73;51.50;99636.03;4962289;28;23900;-79
2022/06/26 00:46:05;;;;;;;3.45;2.40;;;;;;;23.82;50.79;99613.00;4977735;28;20042;-80
2022/06/26 00:48:32;;;;;;;4.25;2.53;;;;;;;23.95;50.36;99608.47;4961855;28;20454;-80
2022/06/26 00:50:59;;;;;;;7.47;2.75;;;;;;;24.05;50.15;99631.28;4982334;28;20050;-91
2022/06/26 00:53:26;;;;;;;4.13;2.58;;;;;;;24.14;49.84;99631.78;4986559;28;20042;-90
2022/06/26 00:55:53;;;;;;;4.70;2.42;;;;;;;24.14;49.83;99629.06;4975101;28;20046;-76
2022/06/26 00:58:19;;;;;;;4.43;2.50;;;;;;;24.00;50.27;99641.16;4969968;28;25463;-76
2022/06/26 01:00:46;;;;;;;2.30;2.10;;;;;;;24.05;50.58;99647.53;4953732;28;20054;-89
2022/06/26 01:03:13;;;;;;;2.70;2.50;;;;;;;24.02;50.52;99650.72;5007805;28;20445;-90
2022/06/26 01:05:40;;;;;;;3.17;2.90;;;;;;;23.60;51.27;99661.38;4971358;28;20067;-89
2022/06/26 01:08:07;;;;;;;5.03;2.60;;;;;;;23.66;51.25;99653.41;4988382;28;20117;-76
2022/06/26 01:10:34;;;;;;;4.57;2.65;;;;;;;23.69;51.36;99656.50;4955607;28;21058;-76
2022/06/26 01:13:01;;;;;;;3.25;2.50;;;;;;;23.76;51.48;99661.88;4972129;28;20119;-76
2022/06/26 01:15:29;;;;;;;3.70;2.70;;;;;;;23.67;51.51;99650.47;4985853;28;20425;-76
2022/06/26 01:17:56;;;;;;;2.38;2.17;;;;;;;23.71;52.06;99661.69;4964188;28;20049;-76
2022/06/26 01:20:24;;;;;;;4.65;2.63;;;;;;;23.78;53.16;99668.72;4949963;28;20053;-76
2022/06/26 01:23:02;;;;;;;3.70;2.30;;;;;;;23.84;53.87;99669.72;4984406;28;20041;-76
2022/06/26 01:25:46;;;;;;;3.60;2.67;;;;;;;23.90;54.33;99674.22;4973225;28;20041;-76
2022/06/26 01:28:14;;;;;;;4.82;2.70;;;;;;;23.96;53.57;99672.50;4937565;28;20651;-76
2022/06/26 01:30:42;;;;;;;3.10;2.80;;;;;;;23.97;53.57;99660.59;4984100;28;20037;-76
2022/06/26 01:33:09;;;;;;;4.50;3.00;;;;;;;23.98;53.82;99668.50;4953249;28;20056;-76
2022/06/26 01:35:36;;;;;;;2.65;2.38;;;;;;;23.98;53.85;99665.78;4962333;28;20058;-78
2022/06/26 01:38:15;;;;;;;8.43;3.70;;;;;;;23.97;54.74;99672.28;4951995;28;21597;-76
2022/06/26 01:40:44;;;;;;;3.85;2.72;;;;;;;23.98;54.27;99659.53;4970133;28;20366;-76
2022/06/26 01:43:14;;;;;;;6.72;2.85;;;;;;;23.99;54.44;99662.03;4965216;28;20112;-76
2022/06/26 01:45:46;;;;;;;3.50;3.20;;;;;;;23.97;54.72;99664.13;4992679;28;20061;-77
2022/06/26 01:48:14;;;;;;;4.55;2.83;;;;;;;23.98;54.73;99662.25;4969086;28;20125;-76
2022/06/26 01:50:41;;;;;;;4.47;2.47;;;;;;;23.99;55.26;99663.88;4978327;28;20405;-76
2022/06/26 01:53:09;;;;;;;4.20;2.50;;;;;;;24.01;55.09;99651.75;4963108;28;20096;-76
2022/06/26 01:55:37;;;;;;;2.85;2.38;;;;;;;24.01;54.88;99640.91;4951572;28;20486;-81
2022/06/26 01:58:07;;;;;;;4.68;2.80;;;;;;;23.94;54.45;99644.75;4952642;28;20049;-81
2022/06/26 02:00:39;;;;;;;3.67;2.50;;;;;;;23.87;54.77;99644.88;4962450;28;20046;-81
2022/06/26 02:03:06;;;;;;;7.53;2.67;;;;;;;23.82;54.62;99634.69;4986214;28;20125;-82
2022/06/26 02:05:34;;;;;;;4.88;2.80;;;;;;;23.77;54.73;99636.44;4950019;28;20053;-82
2022/06/26 02:08:01;;;;;;;4.10;2.58;;;;;;;23.77;55.28;99642.69;4963880;28;20121;-81
2022/06/26 02:16:16;;;;;;;3.42;3.00;;;;;;;23.75;55.27;99631.22;4956126;28;20084;-81
2022/06/26 02:18:51;;;;;;;3.33;2.83;;;;;;;23.74;55.74;99631.47;4967519;28;20134;-81
2022/06/26 02:21:20;;;;;;;3.80;2.90;;;;;;;23.75;55.40;99630.41;4977615;28;20054;-82
2022/06/26 02:23:49;;;;;;;3.40;3.10;;;;;;;23.74;55.47;99635.00;4950309;28;20073;-81
2022/06/26 02:26:17;;;;;;;4.03;2.80;;;;;;;23.76;55.70;99645.59;4992102;28;20073;-81
2022/06/26 02:28:46;;;;;;;3.55;2.65;;;;;;;23.79;55.79;99645.19;4974254;28;20066;-90
2022/06/26 02:31:12;;;;;;;3.10;2.80;;;;;;;23.81;56.09;99641.19;4982134;28;20109;-82
2022/06/26 02:33:40;;;;;;;6.65;2.95;;;;;;;23.80;55.42;99642.22;4987229;28;20049;-81
2022/06/26 02:36:08;;;;;;;5.30;2.80;;;;;;;23.66;55.33;99631.72;4949491;28;20081;-81
2022/06/26 02:38:35;;;;;;;4.18;2.45;;;;;;;23.64;55.63;99631.97;4984359;28;20095;-81
2022/06/26 02:41:03;;;;;;;7.38;3.08;;;;;;;23.62;55.83;99623.22;4969993;28;20049;-81
2022/06/26 02:43:30;;;;;;;2.92;2.72;;;;;;;23.60;55.90;99628.88;4983808;28;20042;-80
2022/06/26 02:45:58;;;;;;;3.65;3.03;;;;;;;23.63;55.97;99633.00;4970675;28;20471;-90
2022/06/26 02:48:26;;;;;;;4.35;2.78;;;;;;;23.62;56.08;99640.31;4991200;28;20060;-88
2022/06/26 02:50:52;;;;;;;3.42;2.33;;;;;;;23.64;56.22;99653.66;4999002;28;20138;-76
2022/06/26 02:53:19;;;;;;;5.72;3.30;;;;;;;23.64;56.37;99660.97;4952200;28;20053;-81
2022/06/26 02:55:47;;;;;;;7.72;2.85;;;;;;;23.64;56.65;99655.53;4977059;28;20050;-81
2022/06/26 02:58:15;;;;;;;8.70;2.67;;;;;;;23.64;56.38;99655.53;4987293;28;22550;-89
2022/06/26 03:00:51;;;;;;;5.50;2.78;;;;;;;23.63;56.11;99651.97;4973035;28;20497;-90
2022/06/26 03:03:19;;;;;;;5.43;3.05;;;;;;;23.62;56.46;99640.31;4998804;28;20046;-91
2022/06/26 03:05:46;;;;;;;2.92;2.47;;;;;;;23.60;56.52;99638.88;4956849;28;22267;-90
2022/06/26 03:08:13;;;;;;;4.00;2.80;;;;;;;23.59;56.62;99639.94;4988071;28;20060;-90
2022/06/26 03:10:39;;;;;;;4.50;2.60;;;;;;;23.57;56.37;99651.00;5006062;28;20050;-89
2022/06/26 03:13:06;;;;;;;3.60;3.13;;;;;;;23.51;56.41;99642.94;4984627;28;20446;-77
2022/06/26 03:15:33;;;;;;;3.25;2.95;;;;;;;23.46;56.70;99640.06;4985330;28;20047;-90
2022/06/26 03:18:03;;;;;;;4.63;2.38;;;;;;;23.46;57.05;99632.78;4966572;28;20053;-81
2022/06/26 03:20:30;;;;;;;4.93;2.80;;;;;;;23.45;57.15;99630.28;4946933;28;20058;-81
2022/06/26 03:22:57;;;;;;;4.00;2.70;;;;;;;23.46;56.99;99637.34;4968415;28;20069;-82
2022/06/26 03:25:24;;;;;;;3.45;2.60;;;;;;;23.46;57.14;99643.63;4949441;28;20876;-76
2022/06/26 03:27:53;;;;;;;3.65;3.03;;;;;;;23.45;57.09;99639.25;4955616;28;20073;-89
2022/06/26 03:30:23;;;;;;;2.47;2.27;;;;;;;23.46;57.17;99635.50;4977029;28;20092;-76
2022/06/26 03:32:52;;;;;;;3.33;2.65;;;;;;;23.45;57.27;99628.41;4961591;28;20464;-78
2022/06/26 03:35:19;;;;;;;4.00;2.88;;;;;;;23.43;57.20;99625.09;4952519;28;20049;-76
2022/06/26 03:37:46;;;;;;;4.63;2.83;;;;;;;23.42;57.26;99618.03;4968574;28;20049;-76
2022/06/26 03:40:13;;;;;;;4.78;2.83;;;;;;;23.45;57.47;99622.16;4969649;28;20046;-81
2022/06/26 03:42:40;;;;;;;5.13;2.75;;;;;;;23.42;57.58;99626.16;4975534;28;20069;-81
2022/06/26 03:45:08;;;;;;;2.97;2.75;;;;;;;23.50;57.84;99627.75;4962860;28;20509;-76
2022/06/26 03:47:35;;;;;;;4.15;2.60;;;;;;;23.74;57.78;99629.59;4951636;28;20948;-76
2022/06/26 03:50:03;;;;;;;3.38;2.60;;;;;;;23.91;57.45;99628.94;4993128;28;20066;-76
2022/06/26 03:52:31;;;;;;;4.43;2.60;;;;;;;24.01;57.57;99632.78;4966321;28;20050;-76
2022/06/26 03:55:00;;;;;;;4.43;2.90;;;;;;;24.07;57.31;99630.19;4966243;28;20066;-76
2022/06/26 03:57:27;;;;;;;3.83;2.75;;;;;;;24.19;57.01;99633.78;4968741;28;20077;-76
2022/06/26 03:59:56;;;;;;;3.50;2.50;;;;;;;24.30;57.32;99632.19;4951184;28;20414;-76
2022/06/26 04:02:30;;;;;;;5.07;3.25;;;;;;;24.43;57.35;99637.44;4970747;28;20115;-76
2022/06/26 04:04:57;;;;;;;7.90;2.63;;;;;;;24.54;57.01;99646.69;4950968;28;20056;-76
2022/06/26 04:07:24;;;;;;;2.65;2.42;;;;;;;24.52;56.58;99649.63;4952540;28;20038;-76
2022/06/26 04:10:08;;;;;;;3.40;2.60;;;;;;;24.46;56.33;99658.72;4953976;28;20064;-76
2022/06/26 04:12:35;;;;;;;2.90;2.70;;;;;;;24.34;56.49;99655.91;4967368;28;20065;-76
2022/06/26 04:15:02;;;;;;;2.92;2.33;;;;;;;24.25;56.59;99657.31;4963049;28;20034;-76
2022/06/26 04:17:30;;;;;;;2.88;2.53;;;;;;;24.16;57.07;99650.53;4981406;28;20053;-76
2022/06/26 04:20:08;;;;;;;2.47;2.33;;;;;;;24.05;56.83;99652.97;4935455;28;20547;-76
2022/06/26 04:22:35;;;;;;;3.53;2.58;;;;;;;23.97;57.33;99663.31;4952644;28;20125;-81
2022/06/26 04:25:04;;;;;;;5.07;2.25;;;;;;;23.90;57.52;99665.28;4967007;28;20042;-81
2022/06/26 04:27:31;;;;;;;4.32;2.53;;;;;;;23.85;57.65;99668.66;4989657;28;20057;-81
2022/06/26 04:29:58;;;;;;;3.08;2.30;;;;;;;23.82;57.49;99663.69;4982382;28;20042;-81
2022/06/26 04:32:27;;;;;;;3.17;2.50;;;;;;;23.82;57.81;99675.38;4984112;28;20046;-89
2022/06/26 04:34:56;;;;;;;3.13;2.30;;;;;;;23.82;58.21;99680.78;4996571;28;20045;-88
2022/06/26 04:37:24;;;;;;;2.78;2.58;;;;;;;23.97;58.04;99683.13;5010054;28;20046;-89
2022/06/26 04:39:51;;;;;;;3.20;2.53;;;;;;;24.21;57.50;99684.06;5004949;28;20046;-89
2022/06/26 04:42:18;;;;;;;5.28;2.10;;;;;;;24.38;57.18;99681.56;4987209;28;20089;-81
2022/06/26 04:44:45;;;;;;;2.30;2.03;;;;;;;24.52;56.54;99678.69;4990543;28;20408;-82
2022/06/26 04:47:11;;;;;;;3.70;2.20;;;;;;;24.69;56.25;99674.25;4974624;28;20457;-81
2022/06/26 04:49:58;;;;;;;2.78;2.00;;;;;;;24.91;55.81;99671.81;4970016;28;20061;-82
2022/06/26 04:52:26;;;;;;;1.98;1.80;;;;;;;25.05;55.42;99673.25;4976274;28;20038;-91
2022/06/26 04:54:56;;;;;;;2.58;1.70;;;;;;;25.12;54.78;99665.81;4981765;28;20467;-89
2022/06/26 04:57:25;;;;;;;3.80;2.00;;;;;;;25.11;55.01;99676.91;4989030;28;20042;-90
2022/06/26 04:59:52;;;;;;;2.80;2.17;;;;;;;25.11;54.76;99674.19;4978454;28;20046;-90
2022/06/26 05:02:18;;;;;;;2.30;1.90;;;;;;;25.13;54.53;99682.94;4988274;28;20449;-88
2022/06/26 05:04:45;;;;;;;2.15;1.73;;;;;;;25.12;54.84;99681.28;5004238;28;20482;-90
2022/06/26 05:07:36;;;;;;;4.88;2.30;;;;;;;25.11;54.52;99685.06;4949572;28;20092;-81
2022/06/26 05:10:06;;;;;;;2.05;1.85;;;;;;;25.06;54.52;99684.94;4973113;28;20054;-81
2022/06/26 05:12:47;;;;;;;1.98;1.75;;;;;;;24.96;54.21;99690.97;4976415;28;20627;-81
2022/06/26 05:15:49;;;;;;;2.33;2.10;;;;;;;24.86;53.86;99693.44;4928172;28;20057;-81
2022/06/26 05:18:16;;;;;;;3.42;1.95;;;;;;;24.76;54.39;99696.69;4995950;28;20046;-81
2022/06/26 05:20:44;;;;;;;1.80;1.70;;;;;;;24.66;54.31;99694.53;5000456;28;20046;-82
2022/06/26 05:23:14;;;;;;;2.00;1.80;;;;;;;24.60;54.89;99700.06;4982250;28;20046;-88
2022/06/26 05:25:53;;;;;;;2.25;1.48;;;;;;;24.39;54.27;99694.06;4950181;28;20395;-89
2022/06/26 05:28:20;;;;;;;1.60;1.50;;;;;;;24.20;54.61;99703.31;4973368;28;20046;-88
2022/06/26 05:30:46;;;;;;;1.83;1.73;;;;;;;24.07;54.80;99704.28;4975270;28;20050;-77
2022/06/26 05:33:13;;;;;;;1.60;1.50;;;;;;;24.02;54.82;99721.25;4940281;28;20046;-76
2022/06/26 05:35:41;;;;;;;2.78;1.92;;;;;;;24.02;55.17;99717.72;4968409;28;20061;-76
2022/06/26 05:38:08;;;;;;;2.22;1.80;;;;;;;24.05;55.11;99718.06;4954299;28;20052;-76
2022/06/26 05:40:38;;;;;;;2.80;1.70;;;;;;;24.09;55.05;99723.03;4954691;28;20545;-76
2022/06/26 05:43:05;;;;;;;1.88;1.50;;;;;;;24.11;55.10;99724.47;4962740;28;20046;-76
2022/06/26 05:45:32;;;;;;;2.90;1.80;;;;;;;24.15;55.19;99725.69;4975318;28;20043;-90
2022/06/26 05:48:34;;;;;;;1.73;1.63;;;;;;;24.16;54.88;99732.75;4896013;28;20061;-76
2022/06/26 05:51:23;;;;;;;2.20;1.45;;;;;;;24.19;54.78;99743.16;4927571;28;20086;-76
2022/06/26 05:54:10;;;;;;;2.58;1.58;;;;;;;24.16;54.90;99749.03;4949658;28;20383;-76
2022/06/26 05:57:03;;;;;;;2.80;1.80;;;;;;;24.15;54.85;99750.09;4917215;28;20225;-76
2022/06/26 05:59:49;;;;;;;3.40;1.98;;;;;;;24.16;55.18;99750.91;4972519;28;20122;-90
2022/06/26 06:02:42;;;;;;;2.85;1.65;;;;;;;24.18;55.27;99752.34;4947190;28;20057;-91
2022/06/26 06:05:10;;;;;;;1.65;1.48;;;;;;;24.22;55.43;99763.56;4959184;28;21075;-81
2022/06/26 06:07:40;;;;;;;5.57;2.10;;;;;;;24.29;55.52;99767.03;4964348;28;20043;-81
2022/06/26 06:10:08;;;;;;;1.92;1.70;;;;;;;24.32;55.66;99758.44;4958101;28;20043;-80
2022/06/26 06:12:37;;;;;;;2.85;1.80;;;;;;;24.33;55.37;99745.72;4937288;28;20046;-80
2022/06/26 06:15:06;;;;;;;5.50;2.00;;;;;;;24.36;55.19;99743.38;4959319;28;20052;-81
2022/06/26 06:17:35;;;;;;;2.55;1.50;;;;;;;24.38;54.95;99743.97;4989076;28;20066;-81
2022/06/26 06:20:04;;;;;;;1.85;1.70;;;;;;;24.41;54.81;99737.25;4985656;28;20684;-80
2022/06/26 06:22:37;;;;;;;3.15;1.42;;;;;;;24.37;54.40;99733.34;4979859;28;20068;-81
2022/06/26 06:25:05;;;;;;;3.42;1.60;;;;;;;24.33;54.11;99732.16;4999162;28;20049;-81
2022/06/26 06:27:39;;;;;;;3.90;1.70;;;;;;;24.27;54.36;99736.59;4967252;28;20080;-81
2022/06/26 06:30:12;;;;;;;1.48;1.17;;;;;;;24.24;54.34;99737.03;4968725;28;20144;-76
2022/06/26 06:32:40;;;;;;;1.60;1.50;;;;;;;24.22;54.42;99741.88;4970654;28;20092;-78
2022/06/26 06:35:16;;;;;;;1.60;1.50;;;;;;;24.23;54.66;99746.25;4965081;28;20042;-78
2022/06/26 06:37:44;;;;;;;1.92;1.58;;;;;;;24.27;54.33;99759.13;4964833;28;20046;-77
2022/06/26 06:40:12;;;;;;;4.07;1.70;;;;;;;24.32;54.46;99753.00;4982575;28;20438;-81
2022/06/26 06:42:42;;;;;;;2.72;1.55;;;;;;;24.38;53.95;99748.56;4978858;28;20071;-83
2022/06/26 06:45:13;;;;;;;4.13;1.63;;;;;;;24.36;53.72;99750.69;4970318;28;20081;-84
2022/06/26 06:47:55;;;;;;;2.53;1.40;;;;;;;24.36;53.80;99751.50;4948413;28;20042;-84
2022/06/26 06:50:37;;;;;;;1.70;1.60;;;;;;;24.41;53.60;99748.94;4983967;28;20409;-83
2022/06/26 06:53:05;;;;;;;1.50;1.40;;;;;;;24.42;53.54;99755.19;4961999;28;20133;-84
2022/06/26 06:55:32;;;;;;;2.15;1.50;;;;;;;24.43;53.64;99754.97;4967065;28;20077;-85
2022/06/26 06:57:59;;;;;;;2.22;1.98;;;;;;;24.47;53.50;99761.66;4963770;28;20045;-77
2022/06/26 07:00:26;;;;;;;3.47;1.50;;;;;;;24.46;53.47;99770.00;4956574;28;20069;-77
2022/06/26 07:02:52;;;;;;;1.88;1.77;;;;;;;24.45;53.10;99776.47;4977770;28;20523;-78
2022/06/26 07:05:20;;;;;;;4.47;2.00;;;;;;;24.40;53.04;99777.16;4964256;28;20156;-77
2022/06/26 07:07:49;;;;;;;1.70;1.60;;;;;;;24.38;53.91;99773.81;4984062;28;20516;-77
2022/06/26 07:10:16;;;;;;;3.05;1.58;;;;;;;24.33;54.34;99770.97;4949381;28;20041;-82
2022/06/26 07:12:54;;;;;;;1.77;1.65;;;;;;;24.36;53.66;99773.22;4984808;28;20088;-86
2022/06/26 07:15:21;;;;;;;2.20;1.50;;;;;;;24.43;53.60;99781.28;4983899;28;20087;-84
2022/06/26 07:17:48;;;;;;;1.65;1.55;;;;;;;24.49;53.29;99788.53;4979203;28;20046;-77
2022/06/26 07:20:15;;;;;;;2.97;1.80;;;;;;;24.39;53.62;99788.22;4968592;28;20132;-87
2022/06/26 07:22:42;;;;;;;1.58;1.48;;;;;;;24.27;53.75;99799.84;4978048;28;20058;-83
2022/06/26 07:25:21;;;;;;;2.45;1.73;;;;;;;24.31;54.35;99792.06;4947846;28;20117;-84
2022/06/26 07:28:06;;;;;;;3.15;1.50;;;;;;;24.34;54.76;99788.06;4951795;28;20042;-83
2022/06/26 07:30:35;;;;;;;1.98;1.50;;;;;;;24.35;54.32;99785.13;4954037;28;20464;-83
2022/06/26 07:35:55;;;;;;;2.67;1.80;;;;;;;24.49;53.20;99788.53;4966607;28;20048;-87
2022/06/26 07:38:28;;;;;;;2.15;1.88;;;;;;;24.45;53.24;99790.91;4969157;28;20052;-87
2022/06/26 07:40:55;;;;;;;4.93;1.77;;;;;;;24.44;53.37;99793.78;4970622;28;20401;-87
2022/06/26 07:43:21;;;;;;;2.95;1.60;;;;;;;24.36;53.72;99789.50;4977973;28;20133;-87
2022/06/26 07:45:49;;;;;;;1.95;1.60;;;;;;;24.37;53.26;99785.72;4980466;28;20046;-88
2022/06/26 07:48:17;;;;;;;5.82;1.77;;;;;;;24.40;53.68;99800.72;4968373;28;20433;-86
2022/06/26 07:50:43;;;;;;;2.53;1.50;;;;;;;24.38;53.49;99800.16;4981072;28;20157;-87
2022/06/26 07:53:10;;;;;;;4.10;1.92;;;;;;;24.41;53.89;99799.69;4977681;28;20108;-87
2022/06/26 07:55:37;;;;;;;1.73;1.60;;;;;;;24.44;53.99;99804.66;4977355;28;20042;-86
2022/06/26 07:58:08;;;;;;;1.60;1.50;;;;;;;24.38;53.27;99794.72;4982378;28;20045;-86
2022/06/26 08:00:35;;;;;;;3.50;1.65;;;;;;;24.44;54.06;99793.78;4976692;28;20077;-87
2022/06/26 08:03:05;;;;;;;2.35;1.75;;;;;;;24.44;53.57;99802.75;4980701;28;20042;-84
2022/06/26 08:05:32;;;;;;;2.50;1.75;;;;;;;24.53;53.67;99799.78;4977137;28;20044;-84
2022/06/26 08:07:59;;;;;;;2.00;1.58;;;;;;;24.55;53.61;99800.38;4976329;28;20046;-84
2022/06/26 08:10:34;;;;;;;4.45;1.77;;;;;;;24.52;53.62;99798.94;4996842;28;20456;-84
2022/06/26 08:13:00;;;;;;;2.65;1.75;;;;;;;24.48;52.71;99801.28;4961415;28;20046;-83
2022/06/26 08:15:27;;;;;;;2.30;1.73;;;;;;;24.52;53.09;99800.81;4978265;28;20046;-81
2022/06/26 08:17:54;;;;;;;1.50;1.40;;;;;;;24.45;52.76;99790.03;4983012;28;20145;-84
2022/06/26 08:20:21;;;;;;;3.28;2.00;;;;;;;24.32;53.01;99777.44;4966315;28;20579;-83
2022/06/26 08:22:49;;;;;;;1.70;1.60;;;;;;;24.36;53.29;99781.34;4983560;28;21098;-84
2022/06/26 08:25:16;;;;;;;2.03;1.67;;;;;;;24.35;53.00;99781.56;4974538;28;20052;-84
2022/06/26 08:27:42;;;;;;;4.93;2.00;;;;;;;24.40;52.76;99776.28;4974946;28;20440;-83
2022/06/26 08:30:09;;;;;;;3.05;2.13;;;;;;;24.38;52.29;99784.69;4995103;28;20056;-77
2022/06/26 08:32:41;;;;;;;3.13;2.00;;;;;;;24.35;52.47;99774.28;4929423;28;20043;-78
2022/06/26 08:35:11;;;;;;;3.88;1.70;;;;;;;24.43;52.87;99771.25;4969454;28;20071;-77
2022/06/26 08:37:37;;;;;;;2.80;1.48;;;;;;;24.50;52.55;99768.50;4958002;28;20042;-77
2022/06/26 08:40:05;;;;;;;1.67;1.40;;;;;;;24.54;52.70;99766.16;4976496;28;20050;-77
2022/06/26 08:42:53;;;;;;;2.15;1.80;;;;;;;24.63;52.34;99767.50;4940415;28;20046;-78
2022/06/26 08:45:21;;;;;;;1.45;1.35;;;;;;;24.64;51.72;99761.81;4946731;28;20150;-77
2022/06/26 08:47:51;;;;;;;4.00;1.50;;;;;;;24.59;52.35;99760.84;4972417;28;20092;-77
2022/06/26 08:50:20;;;;;;;2.38;1.40;;;;;;;24.64;51.78;99761.81;4994922;28;20402;-87
2022/06/26 08:52:49;;;;;;;1.83;1.20;;;;;;;24.64;51.19;99763.72;4979678;28;20429;-86
2022/06/26 08:55:17;;;;;;;1.63;1.50;;;;;;;24.53;51.25;99743.59;4978078;28;20062;-84
2022/06/26 08:57:44;;;;;;;1.35;1.25;;;;;;;24.66;51.64;99748.03;4987319;28;20108;-76
2022/06/26 09:00:11;;;;;;;3.50;1.67;;;;;;;24.74;51.68;99747.69;4968115;28;20065;-76
2022/06/26 09:02:37;;;;;;;3.60;1.55;;;;;;;24.73;51.91;99746.06;4963083;28;20046;-76
2022/06/26 09:05:05;;;;;;;2.10;1.58;;;;;;;24.77;51.91;99747.22;4961290;28;20054;-77
2022/06/26 09:07:32;;;;;;;2.13;1.60;;;;;;;24.84;51.71;99742.53;4960195;28;20068;-76
2022/06/26 09:10:08;;;;;;;1.67;1.58;;;;;;;24.87;51.44;99742.06;4975059;28;20050;-77
2022/06/26 09:12:36;;;;;;;1.60;1.50;;;;;;;24.96;51.62;99753.44;4956843;28;20521;-81
2022/06/26 09:15:03;;;;;;;3.47;2.00;;;;;;;25.02;51.85;99751.69;5000490;28;20117;-81
2022/06/26 09:17:30;;;;;;;2.75;2.00;;;;;;;25.02;51.56;99746.25;4953165;28;20054;-82
2022/06/26 09:19:57;;;;;;;2.55;2.22;;;;;;;25.02;51.29;99747.06;4982062;28;20363;-82
2022/06/26 09:22:24;;;;;;;2.10;1.90;;;;;;;25.01;51.39;99756.28;4981365;28;20066;-82
2022/06/26 09:24:54;;;;;;;1.38;1.27;;;;;;;25.04;49.81;99757.72;4968707;28;20038;-81
2022/06/26 09:27:21;;;;;;;4.10;1.58;;;;;;;25.04;49.90;99765.88;4979480;28;20089;-82
2022/06/26 09:29:53;;;;;;;2.28;1.48;;;;;;;25.05;49.62;99760.19;4967176;28;20053;-82
2022/06/26 09:32:22;;;;;;;2.78;1.48;;;;;;;25.10;50.05;99770.34;4987175;28;20046;-81
2022/06/26 09:34:50;;;;;;;2.75;1.73;;;;;;;25.11;49.09;99774.72;4988352;28;20149;-77
2022/06/26 09:37:22;;;;;;;2.92;1.90;;;;;;;25.09;48.60;99766.00;4998010;28;20053;-77
2022/06/26 09:40:12;;;;;;;1.85;1.50;;;;;;;25.16;49.39;99763.16;4937137;28;20050;-77
2022/06/26 09:42:39;;;;;;;1.65;1.42;;;;;;;25.23;50.22;99759.31;4939764;28;20148;-77
2022/06/26 09:45:09;;;;;;;2.10;1.80;;;;;;;25.17;49.57;99765.69;4963453;28;20585;-77
2022/06/26 09:47:36;;;;;;;1.90;1.80;;;;;;;25.22;50.09;99760.38;4984266;28;20046;-77
2022/06/26 09:50:07;;;;;;;1.92;1.83;;;;;;;25.26;50.93;99756.13;4969002;28;20053;-77
2022/06/26 09:52:33;;;;;;;2.70;1.85;;;;;;;25.30;50.90;99759.22;4947005;28;20038;-77
2022/06/26 09:55:03;;;;;;;2.38;2.03;;;;;;;25.45;50.20;99747.88;4971013;28;20119;-77
2022/06/26 09:57:32;;;;;;;1.88;1.77;;;;;;;25.49;50.56;99746.34;4996219;28;20133;-77
2022/06/26 10:00:00;;;;;;;1.75;1.65;;;;;;;25.54;49.94;99755.47;4982340;28;20066;-80
2022/06/26 10:08:03;;;;;;;2.45;1.90;;;;;;;25.46;49.99;99744.09;4964111;28;20042;-81
2022/06/26 10:10:30;;;;;;;2.13;1.88;;;;;;;25.47;49.29;99745.75;4977965;28;20053;-81
2022/06/26 10:13:02;;;;;;;2.08;1.88;;;;;;;25.52;49.31;99735.00;4983466;28;20038;-82
2022/06/26 10:16:07;;;;;;;2.00;1.80;;;;;;;25.54;48.71;99736.44;4960159;28;20141;-81
2022/06/26 10:19:14;;;;;;;2.10;1.80;;;;;;;25.42;48.79;99732.88;4911989;28;20489;-79
2022/06/26 10:21:42;;;;;;;2.15;1.83;;;;;;;25.50;49.45;99739.84;4915458;28;20507;-82
2022/06/26 10:24:08;;;;;;;2.58;1.70;;;;;;;25.46;49.74;99738.66;4945387;28;20050;-82
2022/06/26 10:26:35;;;;;;;2.58;2.13;;;;;;;25.59;49.79;99735.69;4947145;28;20055;-82
2022/06/26 10:29:09;;;;;;;2.80;2.20;;;;;;;25.63;49.42;99734.16;4962578;28;20066;-88
2022/06/26 10:31:43;;;;;;;2.50;2.10;;;;;;;25.75;49.05;99734.19;4968933;28;20520;-85
2022/06/26 10:34:21;;;;;;;2.67;2.13;;;;;;;25.76;49.10;99725.75;4999853;28;20108;-87
2022/06/26 10:37:04;;;;;;;3.63;2.20;;;;;;;25.77;48.95;99722.00;4986237;28;20442;-87
2022/06/26 10:39:43;;;;;;;2.20;2.00;;;;;;;25.87;49.19;99718.66;4962329;28;20129;-87
2022/06/26 10:45:09;;;;;;;4.72;1.80;;;;;;;25.88;47.94;99728.50;4931057;28;20043;-84
2022/06/26 10:47:58;;;;;;;4.38;2.00;;;;;;;25.88;46.88;99725.78;4965980;28;20453;-87
2022/06/26 10:50:39;;;;;;;3.13;1.70;;;;;;;25.93;48.01;99719.63;4940375;28;20271;-87
2022/06/26 10:53:26;;;;;;;2.17;1.73;;;;;;;25.93;48.13;99727.78;4926737;28;20043;-87
2022/06/26 10:55:58;;;;;;;2.20;2.00;;;;;;;26.06;47.94;99721.25;4928110;28;20045;-87
2022/06/26 10:58:32;;;;;;;3.47;1.92;;;;;;;26.09;47.33;99721.59;4937956;28;20055;-88
2022/06/26 11:01:06;;;;;;;2.00;1.80;;;;;;;26.16;47.65;99719.56;4945553;28;20414;-87
2022/06/26 11:03:34;;;;;;;2.05;1.92;;;;;;;26.22;47.19;99716.97;4943644;28;20070;-87
2022/06/26 11:06:11;;;;;;;1.67;1.58;;;;;;;26.27;47.21;99722.50;4928120;28;20059;-79
2022/06/26 11:08:50;;;;;;;2.10;1.90;;;;;;;26.31;46.51;99718.25;4950003;28;20045;-77
2022/06/26 11:11:23;;;;;;;2.08;1.90;;;;;;;26.39;46.73;99713.22;4938072;28;20557;-78
2022/06/26 11:13:57;;;;;;;2.03;1.83;;;;;;;26.29;46.34;99713.03;4938652;28;20530;-78
2022/06/26 11:16:41;;;;;;;3.63;2.22;;;;;;;26.20;45.36;99714.47;4995184;28;20046;-78
2022/06/26 11:19:29;;;;;;;2.50;1.88;;;;;;;26.20;46.52;99706.28;5009045;28;20050;-78
2022/06/26 11:22:10;;;;;;;2.28;1.70;;;;;;;26.24;46.82;99707.47;4970229;28;20448;-82
2022/06/26 11:24:49;;;;;;;2.00;1.80;;;;;;;26.28;47.03;99707.81;4977417;28;20372;-82
2022/06/26 11:27:26;;;;;;;1.90;1.80;;;;;;;26.44;47.30;99712.50;4962818;28;20045;-82
2022/06/26 11:29:53;;;;;;;1.88;1.77;;;;;;;26.48;47.21;99710.94;4963979;28;20038;-87
2022/06/26 11:32:26;;;;;;;3.42;2.00;;;;;;;26.52;47.47;99703.97;4970449;28;20050;-83
2022/06/26 11:34:55;;;;;;;2.72;1.80;;;;;;;26.53;46.85;99694.72;4968936;28;20050;-87
2022/06/26 11:37:36;;;;;;;2.10;1.63;;;;;;;26.53;47.68;99702.06;4980050;28;20050;-86
2022/06/26 11:40:14;;;;;;;2.25;1.63;;;;;;;26.58;47.60;99700.25;4954995;28;20044;-87
2022/06/26 11:42:41;;;;;;;3.17;1.77;;;;;;;26.71;47.63;99699.13;4985394;28;20033;-87
2022/06/26 11:45:08;;;;;;;1.88;1.63;;;;;;;26.74;47.43;99700.53;4982233;28;20038;-86
2022/06/26 11:47:37;;;;;;;1.98;1.73;;;;;;;26.77;47.04;99691.91;4979315;28;20444;-86
2022/06/26 11:50:07;;;;;;;2.00;1.80;;;;;;;26.82;46.92;99692.81;4978792;28;20058;-88
2022/06/26 11:52:38;;;;;;;2.10;1.92;;;;;;;26.80;46.59;99688.66;4980136;28;20049;-88
2022/06/26 11:55:04;;;;;;;3.63;2.10;;;;;;;26.87;46.83;99689.34;4977333;28;20069;-87
2022/06/26 11:57:36;;;;;;;2.50;1.80;;;;;;;26.82;46.23;99691.97;4955280;28;20117;-88
2022/06/26 12:00:05;;;;;;;1.88;1.77;;;;;;;26.76;45.96;99682.06;4977921;28;20138;-88
2022/06/26 12:02:40;;;;;;;3.88;2.25;;;;;;;26.77;45.68;99678.28;4980784;28;20041;-88
2022/06/26 12:05:07;;;;;;;2.08;1.92;;;;;;;26.91;45.05;99681.50;4965450;28;20048;-88
2022/06/26 12:07:41;;;;;;;2.10;2.00;;;;;;;26.82;45.46;99675.63;4998280;28;20050;-87